Time;durP1;ratioP1;P1;durP2;ratioP2;P2;SDS_P1;SDS_P2;PMS_P1;PMS_P2;Temp;Humidity;BMP_temperature;BMP_pressure;BME280_temperature;BME280_humidity;BME280_pressure;Samples;Min_cycle;Max_cycle;Signal;HPM_P1;HPM_P2
2022/10/26 00:01:15;;;;;;;5.93;3.20;;;;;;;14.96;nan;-24234.31;5092449;28;20577;-76
2022/10/26 00:03:42;;;;;;;10.65;3.55;;;;;;;15.11;nan;-24238.38;5089913;28;20189;-75
2022/10/26 00:06:10;;;;;;;10.10;4.13;;;;;;;15.10;nan;-24238.09;5081597;28;20220;-76
2022/10/26 00:08:36;;;;;;;9.82;3.40;;;;;;;15.21;nan;-24241.19;5083541;28;20188;-76
2022/10/26 00:11:02;;;;;;;8.70;3.70;;;;;;;15.15;nan;-24239.66;5092830;28;20161;-75
2022/10/26 00:13:27;;;;;;;7.80;3.05;;;;;;;15.36;nan;-24245.38;5075500;28;20307;-75
2022/10/26 00:15:54;;;;;;;6.47;3.38;;;;;;;14.58;nan;-24223.94;5070908;28;20173;-75
2022/10/26 00:18:19;;;;;;;9.40;3.25;;;;;;;15.28;nan;-24243.16;5070829;28;20170;-75
2022/10/26 00:20:45;;;;;;;8.30;3.53;;;;;;;15.19;nan;-24240.78;5070757;28;20700;-75
2022/10/26 00:23:10;;;;;;;6.97;3.10;;;;;;;15.19;nan;-24240.78;5072961;28;20193;-76
2022/10/26 00:25:36;;;;;;;7.68;3.58;;;;;;;15.01;nan;-24235.72;5072782;28;20585;-76
2022/10/26 00:28:01;;;;;;;5.32;3.25;;;;;;;14.76;nan;-24228.84;5072697;28;20305;-76
2022/10/26 00:30:27;;;;;;;8.43;3.50;;;;;;;14.91;nan;-24232.94;5084679;28;20555;-77
2022/10/26 00:32:52;;;;;;;9.57;3.78;;;;;;;14.95;nan;-24234.19;5084419;28;20659;-75
2022/10/26 00:35:18;;;;;;;6.10;3.30;;;;;;;15.02;nan;-24236.00;5092484;28;20177;-76
2022/10/26 00:37:43;;;;;;;9.77;4.05;;;;;;;14.66;nan;-24225.91;5078225;28;20190;-75
2022/10/26 00:40:09;;;;;;;5.88;3.05;;;;;;;14.56;nan;-24223.25;5072155;28;20232;-75
2022/10/26 00:42:35;;;;;;;10.63;3.15;;;;;;;14.36;nan;-24217.66;5089113;28;20187;-76
2022/10/26 00:45:17;;;;;;;5.50;2.53;;;;;;;14.67;nan;-24226.34;5077856;28;20264;-76
2022/10/26 00:47:47;;;;;;;11.60;3.50;;;;;;;14.76;nan;-24228.72;5092739;28;20215;-75
2022/10/26 00:50:23;;;;;;;10.05;2.85;;;;;;;14.66;nan;-24226.06;5079419;28;20524;-75
2022/10/26 00:52:51;;;;;;;10.57;2.85;;;;;;;14.97;nan;-24234.59;5086214;28;20215;-75
2022/10/26 00:55:20;;;;;;;5.82;2.85;;;;;;;15.22;nan;-24241.47;5081457;28;20174;-75
2022/10/26 00:57:47;;;;;;;6.32;2.60;;;;;;;14.87;nan;-24231.81;5083368;28;20238;-75
2022/10/26 01:00:12;;;;;;;3.45;2.65;;;;;;;15.48;nan;-24248.75;5091824;28;20535;-75
2022/10/26 01:02:38;;;;;;;3.72;2.22;;;;;;;15.24;nan;-24242.16;5073669;28;20273;-76
2022/10/26 01:05:05;;;;;;;5.15;2.72;;;;;;;15.47;nan;-24248.47;5080552;28;20644;-76
2022/10/26 01:07:31;;;;;;;6.18;3.55;;;;;;;15.84;nan;-24258.84;5078202;28;20535;-76
2022/10/26 01:09:57;;;;;;;8.30;2.40;;;;;;;15.88;nan;-24259.81;5086705;28;20699;-76
2022/10/26 01:12:22;;;;;;;7.95;2.28;;;;;;;15.84;nan;-24258.84;5090067;28;20277;-76
2022/10/26 01:14:48;;;;;;;10.02;2.30;;;;;;;16.13;nan;-24266.81;5070869;28;20295;-75
2022/10/26 01:17:45;;;;;;;5.18;2.40;;;;;;;16.45;nan;-24275.63;5088523;28;20181;-75
2022/10/26 01:20:29;;;;;;;8.75;3.33;;;;;;;16.59;nan;-24279.41;5070919;28;20210;-75
2022/10/26 01:23:09;;;;;;;5.70;2.90;;;;;;;16.51;nan;-24277.28;5086888;28;20189;-75
2022/10/26 01:26:02;;;;;;;8.65;2.67;;;;;;;16.47;nan;-24276.03;5083542;28;20247;-76
2022/10/26 01:28:36;;;;;;;4.72;2.45;;;;;;;16.49;nan;-24276.72;5083248;28;20570;-77
2022/10/26 01:31:06;;;;;;;3.13;2.38;;;;;;;16.43;nan;-24275.06;5075761;28;20713;-75
2022/10/26 01:33:55;;;;;;;6.97;2.28;;;;;;;16.45;nan;-24275.63;5072218;28;20169;-75
2022/10/26 01:36:31;;;;;;;4.38;2.08;;;;;;;16.49;nan;-24276.59;5092054;28;20640;-76
2022/10/26 01:39:35;;;;;;;6.13;2.60;;;;;;;16.49;nan;-24276.72;5092023;28;20164;-76
2022/10/26 01:42:02;;;;;;;4.82;2.70;;;;;;;16.19;nan;-24268.47;5050877;28;20238;-75
2022/10/26 01:44:42;;;;;;;7.35;2.80;;;;;;;16.54;nan;-24278.13;5091885;28;20196;-75
2022/10/26 01:47:11;;;;;;;5.18;2.38;;;;;;;16.21;nan;-24269.03;5091657;28;20221;-75
2022/10/26 01:49:45;;;;;;;4.57;2.42;;;;;;;16.26;nan;-24270.31;5091412;28;20182;-75
2022/10/26 01:52:11;;;;;;;5.43;2.78;;;;;;;16.45;nan;-24275.63;5091778;28;20646;-76
2022/10/26 01:54:37;;;;;;;4.90;3.05;;;;;;;15.96;nan;-24261.91;5091608;28;20185;-75
2022/10/26 01:57:10;;;;;;;4.65;2.05;;;;;;;16.08;nan;-24265.41;5091537;28;20177;-75
2022/10/26 02:00:03;;;;;;;7.78;2.30;;;;;;;16.00;nan;-24263.03;5091954;28;20644;-75
2022/10/26 02:02:28;;;;;;;3.53;2.13;;;;;;;15.97;nan;-24262.19;5090636;28;20181;-75
2022/10/26 02:05:48;;;;;;;4.03;1.90;;;;;;;15.97;nan;-24262.19;5090115;28;20551;-75
2022/10/26 02:08:29;;;;;;;10.45;2.83;;;;;;;15.97;nan;-24262.31;5008935;28;20184;-75
2022/10/26 02:11:07;;;;;;;4.78;2.47;;;;;;;15.75;nan;-24256.31;5082816;28;20189;-75
2022/10/26 02:13:43;;;;;;;7.90;1.92;;;;;;;16.16;nan;-24267.50;5091496;28;20205;-76
2022/10/26 02:16:08;;;;;;;3.72;1.85;;;;;;;16.31;nan;-24271.69;5092007;28;20546;-76
2022/10/26 02:18:49;;;;;;;3.63;2.53;;;;;;;13.48;nan;-24193.22;5091671;28;20639;-75
2022/10/26 02:21:21;;;;;;;5.57;2.95;;;;;;;16.30;nan;-24271.56;5091288;28;20185;-75
2022/10/26 02:23:50;;;;;;;4.20;2.00;;;;;;;16.50;nan;-24276.88;5089907;28;20180;-75
2022/10/26 02:26:21;;;;;;;3.00;2.10;;;;;;;16.45;nan;-24275.63;5092504;28;20239;-76
2022/10/26 02:28:49;;;;;;;7.07;2.60;;;;;;;16.35;nan;-24272.81;5095069;28;20393;-76
2022/10/26 02:31:17;;;;;;;6.72;2.15;;;;;;;16.61;nan;-24280.09;5095084;28;20173;-75
2022/10/26 02:33:50;;;;;;;8.30;3.15;;;;;;;16.56;nan;-24278.69;5094991;28;20185;-76
2022/10/26 02:36:23;;;;;;;3.80;1.92;;;;;;;16.53;nan;-24277.84;5093539;28;20161;-76
2022/10/26 02:38:50;;;;;;;3.08;2.00;;;;;;;16.53;nan;-24277.72;5094890;28;20162;-76
2022/10/26 02:41:17;;;;;;;8.05;2.38;;;;;;;16.47;nan;-24276.16;5094819;28;20176;-76
2022/10/26 02:43:47;;;;;;;3.42;2.00;;;;;;;16.26;nan;-24270.31;5095426;28;20264;-76
2022/10/26 02:46:16;;;;;;;4.53;2.55;;;;;;;16.15;nan;-24267.38;5095316;28;20668;-77
2022/10/26 02:48:42;;;;;;;5.00;2.38;;;;;;;16.41;nan;-24274.50;5094497;28;20180;-75
2022/10/26 02:51:32;;;;;;;3.83;2.30;;;;;;;16.42;nan;-24274.63;5093551;28;20181;-75
2022/10/26 02:54:14;;;;;;;3.20;2.00;;;;;;;16.48;nan;-24276.31;5094753;28;20625;-75
2022/10/26 02:56:50;;;;;;;8.57;2.33;;;;;;;16.48;nan;-24276.44;5094476;28;20173;-75
2022/10/26 02:59:19;;;;;;;3.70;2.35;;;;;;;16.64;nan;-24280.94;5092899;28;20317;-75
2022/10/26 03:01:46;;;;;;;4.07;2.58;;;;;;;16.61;nan;-24280.09;5092951;28;20241;-76
2022/10/26 03:04:11;;;;;;;5.55;2.53;;;;;;;16.63;nan;-24280.66;5093551;28;20184;-76
2022/10/26 03:06:36;;;;;;;5.22;2.40;;;;;;;16.61;nan;-24279.94;5074885;28;20206;-75
2022/10/26 03:09:02;;;;;;;4.90;2.72;;;;;;;17.01;nan;-24291.00;5093579;28;20177;-76
2022/10/26 03:11:28;;;;;;;3.65;2.25;;;;;;;16.42;nan;-24274.63;5093712;28;20704;-77
2022/10/26 03:13:53;;;;;;;4.30;2.45;;;;;;;16.96;nan;-24289.72;5074298;28;20170;-76
2022/10/26 03:16:18;;;;;;;5.32;2.70;;;;;;;17.09;nan;-24293.22;5079386;28;20670;-76
2022/10/26 03:18:44;;;;;;;3.95;2.28;;;;;;;17.20;nan;-24296.28;5092843;28;20546;-76
2022/10/26 03:21:09;;;;;;;4.97;2.65;;;;;;;16.84;nan;-24286.22;5093752;28;20177;-76
2022/10/26 03:23:35;;;;;;;5.28;2.67;;;;;;;16.79;nan;-24284.97;5092440;28;20157;-75
2022/10/26 03:26:00;;;;;;;8.68;3.05;;;;;;;16.90;nan;-24288.06;5093085;28;20245;-75
2022/10/26 03:28:26;;;;;;;3.97;2.25;;;;;;;17.14;nan;-24294.75;5091699;28;20566;-76
2022/10/26 03:30:51;;;;;;;8.80;2.75;;;;;;;16.96;nan;-24289.59;5093024;28;20184;-75
2022/10/26 03:33:17;;;;;;;4.90;2.20;;;;;;;16.70;nan;-24282.59;5093822;28;20648;-76
2022/10/26 03:35:42;;;;;;;6.22;2.42;;;;;;;16.65;nan;-24281.22;5082856;28;20197;-76
2022/10/26 03:38:07;;;;;;;4.43;2.20;;;;;;;17.08;nan;-24292.94;5077849;28;20173;-75
2022/10/26 03:40:34;;;;;;;6.32;2.80;;;;;;;16.91;nan;-24288.34;5084341;28;20185;-76
2022/10/26 03:43:00;;;;;;;2.70;2.05;;;;;;;16.99;nan;-24290.56;5085687;28;20223;-76
2022/10/26 03:45:25;;;;;;;6.68;2.10;;;;;;;17.07;nan;-24292.66;5093965;28;20197;-75
2022/10/26 03:47:51;;;;;;;2.63;2.03;;;;;;;16.98;nan;-24290.16;5089506;28;20201;-77
2022/10/26 03:50:19;;;;;;;5.22;2.67;;;;;;;16.56;nan;-24278.53;5076970;28;20665;-76
2022/10/26 03:52:46;;;;;;;3.90;2.30;;;;;;;16.88;nan;-24287.34;5092016;28;20200;-76
2022/10/26 03:55:12;;;;;;;5.38;2.47;;;;;;;16.55;nan;-24278.41;5092854;28;20372;-76
2022/10/26 03:57:44;;;;;;;10.30;2.60;;;;;;;16.77;nan;-24284.56;5093334;28;20517;-77
2022/10/26 04:00:14;;;;;;;4.28;2.38;;;;;;;16.25;nan;-24270.03;5077700;28;20182;-76
2022/10/26 04:02:41;;;;;;;3.97;2.25;;;;;;;16.22;nan;-24269.31;5073339;28;20195;-75
2022/10/26 04:05:07;;;;;;;3.83;2.45;;;;;;;16.07;nan;-24265.00;5091142;28;20644;-76
2022/10/26 04:07:32;;;;;;;8.40;3.15;;;;;;;16.09;nan;-24265.56;5093616;28;20197;-75
2022/10/26 04:09:58;;;;;;;8.45;2.60;;;;;;;16.14;nan;-24266.94;5093292;28;20188;-75
2022/10/26 04:12:23;;;;;;;5.13;2.83;;;;;;;16.15;nan;-24267.38;5090715;28;20249;-75
2022/10/26 04:14:50;;;;;;;7.57;3.35;;;;;;;16.10;nan;-24265.81;5090133;28;20192;-77
2022/10/26 04:17:15;;;;;;;5.53;2.53;;;;;;;15.75;nan;-24256.19;5090802;28;20207;-76
2022/10/26 04:19:41;;;;;;;12.80;2.95;;;;;;;15.71;nan;-24255.19;5091701;28;20632;-75
2022/10/26 04:22:06;;;;;;;7.28;2.90;;;;;;;15.69;nan;-24254.50;5091353;28;20190;-76
2022/10/26 04:24:32;;;;;;;5.28;2.45;;;;;;;15.82;nan;-24258.13;5090580;28;20173;-76
2022/10/26 04:26:57;;;;;;;5.07;2.35;;;;;;;15.22;nan;-24241.47;5090113;28;20219;-75
2022/10/26 04:29:22;;;;;;;3.80;2.20;;;;;;;15.47;nan;-24248.47;5090054;28;20185;-76
2022/10/26 04:31:48;;;;;;;3.35;2.25;;;;;;;15.43;nan;-24247.34;5076753;28;21026;-77
2022/10/26 04:34:13;;;;;;;5.25;2.45;;;;;;;15.35;nan;-24245.13;5091780;28;20224;-76
2022/10/26 04:36:39;;;;;;;9.82;2.30;;;;;;;15.28;nan;-24243.28;5090312;28;20216;-76
2022/10/26 04:39:04;;;;;;;2.95;2.10;;;;;;;15.20;nan;-24240.91;5089672;28;20553;-77
2022/10/26 04:41:29;;;;;;;5.28;2.50;;;;;;;15.20;nan;-24241.06;5091944;28;20249;-78
2022/10/26 04:43:55;;;;;;;3.50;2.08;;;;;;;15.17;nan;-24240.06;5086364;28;20640;-79
2022/10/26 04:46:20;;;;;;;4.47;2.50;;;;;;;15.00;nan;-24235.44;5090349;28;20201;-78
2022/10/26 04:48:47;;;;;;;7.32;2.72;;;;;;;15.17;nan;-24240.22;5089112;28;20643;-80
2022/10/26 04:51:13;;;;;;;4.40;2.15;;;;;;;15.09;nan;-24237.81;5085764;28;20224;-81
2022/10/26 04:53:38;;;;;;;3.45;2.20;;;;;;;15.05;nan;-24236.84;5089889;28;20272;-81
2022/10/26 04:56:03;;;;;;;8.40;2.47;;;;;;;14.91;nan;-24232.94;5090085;28;20193;-79
2022/10/26 04:58:29;;;;;;;6.50;3.85;;;;;;;15.06;nan;-24237.00;5086050;28;20609;-78
2022/10/26 05:00:55;;;;;;;4.13;2.00;;;;;;;15.13;nan;-24238.94;5080312;28;20188;-80
2022/10/26 05:03:20;;;;;;;8.43;2.50;;;;;;;14.76;nan;-24228.72;5082435;28;20185;-79
2022/10/26 05:05:46;;;;;;;3.85;2.88;;;;;;;14.74;nan;-24228.16;5082305;28;20185;-80
2022/10/26 05:08:13;;;;;;;9.77;2.50;;;;;;;15.29;nan;-24243.56;5084565;28;20306;-75
2022/10/26 05:10:39;;;;;;;4.05;2.40;;;;;;;15.36;nan;-24245.38;5083340;28;20185;-78
2022/10/26 05:13:04;;;;;;;3.33;2.17;;;;;;;15.57;nan;-24251.13;5083611;28;20185;-78
2022/10/26 05:15:30;;;;;;;3.13;2.22;;;;;;;15.30;nan;-24243.72;5081895;28;20565;-78
2022/10/26 05:17:57;;;;;;;4.15;2.40;;;;;;;15.91;nan;-24260.66;5081132;28;20635;-79
2022/10/26 05:20:28;;;;;;;4.65;2.72;;;;;;;15.68;nan;-24254.34;5082869;28;20689;-79
2022/10/26 05:22:55;;;;;;;3.15;2.10;;;;;;;15.92;nan;-24260.94;5084338;28;20208;-75
2022/10/26 05:25:21;;;;;;;10.30;2.67;;;;;;;16.17;nan;-24267.94;5082183;28;20577;-62
2022/10/26 05:27:46;;;;;;;2.58;2.10;;;;;;;16.13;nan;-24266.66;5083408;28;20205;-62
2022/10/26 05:30:12;;;;;;;5.43;2.38;;;;;;;16.56;nan;-24278.69;5084146;28;20276;-60
2022/10/26 05:32:37;;;;;;;7.03;2.35;;;;;;;16.79;nan;-24285.13;5083378;28;20196;-64
2022/10/26 05:35:03;;;;;;;4.90;2.47;;;;;;;16.94;nan;-24289.03;5082472;28;20204;-63
2022/10/26 05:37:28;;;;;;;3.90;2.17;;;;;;;16.86;nan;-24286.78;5084221;28;20183;-62
2022/10/26 05:39:54;;;;;;;6.47;2.78;;;;;;;17.19;nan;-24296.16;5081788;28;20189;-64
2022/10/26 05:42:19;;;;;;;9.07;3.10;;;;;;;16.96;nan;-24289.59;5083710;28;20255;-61
2022/10/26 05:44:45;;;;;;;4.57;2.83;;;;;;;17.30;nan;-24298.94;5084053;28;20180;-62
2022/10/26 05:47:11;;;;;;;7.18;2.70;;;;;;;17.33;nan;-24299.91;5083191;28;20235;-62
2022/10/26 05:49:36;;;;;;;7.35;2.40;;;;;;;17.21;nan;-24296.72;5080821;28;20185;-61
2022/10/26 05:52:02;;;;;;;3.33;2.33;;;;;;;17.50;nan;-24304.66;5083224;28;20639;-62
2022/10/26 05:54:27;;;;;;;5.53;2.25;;;;;;;17.75;nan;-24311.38;5083515;28;20193;-63
2022/10/26 05:56:53;;;;;;;4.00;2.42;;;;;;;17.88;nan;-24315.13;5083066;28;20205;-63
2022/10/26 05:59:19;;;;;;;13.20;4.43;;;;;;;17.55;nan;-24306.06;5085449;28;20307;-62
2022/10/26 06:01:53;;;;;;;9.15;2.47;;;;;;;17.98;nan;-24317.78;5087617;28;20177;-64
2022/10/26 06:04:27;;;;;;;7.43;2.70;;;;;;;18.15;nan;-24322.53;5087650;28;20208;-63
2022/10/26 06:06:53;;;;;;;6.35;2.55;;;;;;;17.92;nan;-24316.09;5086323;28;20205;-63
2022/10/26 06:09:20;;;;;;;6.10;2.90;;;;;;;18.09;nan;-24320.97;5086828;28;20178;-62
2022/10/26 06:11:46;;;;;;;4.28;1.98;;;;;;;18.34;nan;-24327.81;5087715;28;20177;-61
2022/10/26 06:14:11;;;;;;;7.55;2.50;;;;;;;18.78;nan;-24339.78;5087649;28;20197;-62
2022/10/26 06:16:43;;;;;;;5.55;2.58;;;;;;;18.68;nan;-24337.16;5085936;28;20199;-63
2022/10/26 06:19:25;;;;;;;9.00;2.80;;;;;;;18.77;nan;-24339.53;5087923;28;20710;-61
2022/10/26 06:22:03;;;;;;;8.68;2.72;;;;;;;18.91;nan;-24343.41;5087619;28;20181;-64
2022/10/26 06:24:39;;;;;;;6.45;2.60;;;;;;;19.06;nan;-24347.44;5087367;28;20173;-63
2022/10/26 06:27:13;;;;;;;8.32;2.70;;;;;;;19.09;nan;-24348.44;5086577;28;20196;-61
2022/10/26 06:29:58;;;;;;;5.72;2.60;;;;;;;19.32;nan;-24354.81;5087457;28;20185;-62
2022/10/26 06:32:23;;;;;;;4.03;2.33;;;;;;;19.42;nan;-24357.59;5087367;28;20242;-62
2022/10/26 06:34:54;;;;;;;5.57;2.72;;;;;;;19.50;nan;-24359.56;5086692;28;20182;-65
2022/10/26 06:37:20;;;;;;;2.90;2.13;;;;;;;19.58;nan;-24361.78;5086284;28;20185;-64
2022/10/26 06:39:48;;;;;;;3.38;1.83;;;;;;;19.47;nan;-24358.84;5085802;28;20173;-63
2022/10/26 06:42:14;;;;;;;2.80;1.90;;;;;;;19.41;nan;-24357.34;5085673;28;20185;-62
2022/10/26 06:44:40;;;;;;;3.25;2.38;;;;;;;19.75;nan;-24366.66;5085287;28;20239;-60
2022/10/26 06:47:17;;;;;;;5.13;2.20;;;;;;;19.85;nan;-24369.28;5087748;28;20680;-63
2022/10/26 06:50:21;;;;;;;3.42;2.45;;;;;;;19.97;nan;-24372.63;5084698;28;20254;-63
2022/10/26 06:52:56;;;;;;;4.72;2.67;;;;;;;20.01;nan;-24373.59;5047772;28;20577;-63
2022/10/26 06:55:22;;;;;;;3.05;2.00;;;;;;;17.80;nan;-24312.91;5086399;28;20257;-62
2022/10/26 06:57:48;;;;;;;4.25;2.05;;;;;;;19.36;nan;-24355.81;5086125;28;20178;-62
2022/10/26 07:00:22;;;;;;;9.18;2.50;;;;;;;20.12;nan;-24376.66;5085463;28;20300;-63
2022/10/26 07:02:48;;;;;;;8.10;1.90;;;;;;;19.95;nan;-24372.06;5086262;28;20281;-61
2022/10/26 07:05:13;;;;;;;4.35;1.98;;;;;;;20.25;nan;-24380.41;5085971;28;20186;-63
2022/10/26 07:07:44;;;;;;;5.82;2.40;;;;;;;20.04;nan;-24374.44;5086421;28;20737;-64
2022/10/26 07:10:11;;;;;;;7.80;2.50;;;;;;;20.40;nan;-24384.44;5086393;28;20612;-63
2022/10/26 07:12:36;;;;;;;4.35;2.60;;;;;;;20.56;nan;-24388.75;5085151;28;20618;-62
2022/10/26 07:15:03;;;;;;;4.03;2.08;;;;;;;20.69;nan;-24392.34;5086433;28;20212;-64
2022/10/26 07:17:29;;;;;;;3.83;2.40;;;;;;;20.61;nan;-24390.13;5085853;28;20526;-64
2022/10/26 07:19:55;;;;;;;8.50;2.47;;;;;;;20.62;nan;-24390.41;5083634;28;20547;-62
2022/10/26 07:22:21;;;;;;;6.95;2.42;;;;;;;20.68;nan;-24392.19;5086521;28;20635;-64
2022/10/26 07:24:49;;;;;;;3.17;2.05;;;;;;;20.32;nan;-24382.22;5085171;28;21542;-62
2022/10/26 07:27:15;;;;;;;5.53;2.58;;;;;;;20.66;nan;-24391.66;5083906;28;20197;-64
2022/10/26 07:29:41;;;;;;;5.63;2.40;;;;;;;20.30;nan;-24381.66;5085251;28;20672;-63
2022/10/26 07:32:06;;;;;;;5.22;2.65;;;;;;;20.46;nan;-24385.97;5085792;28;20684;-63
2022/10/26 07:34:32;;;;;;;5.03;2.50;;;;;;;20.73;nan;-24393.44;5085338;28;20192;-64
2022/10/26 07:37:00;;;;;;;8.93;2.70;;;;;;;21.06;nan;-24402.47;5084883;28;20269;-62
2022/10/26 07:39:26;;;;;;;3.92;2.38;;;;;;;21.07;nan;-24402.75;5084988;28;20272;-63
2022/10/26 07:41:51;;;;;;;8.10;3.13;;;;;;;20.73;nan;-24393.44;5085278;28;20735;-63
2022/10/26 07:44:17;;;;;;;6.07;2.20;;;;;;;20.89;nan;-24397.75;5085297;28;20248;-63
2022/10/26 07:46:42;;;;;;;4.93;2.42;;;;;;;21.05;nan;-24402.34;5085945;28;20296;-63
2022/10/26 07:49:08;;;;;;;4.35;2.45;;;;;;;21.28;nan;-24408.44;5086267;28;20189;-62
2022/10/26 07:51:33;;;;;;;4.32;2.30;;;;;;;21.07;nan;-24402.88;5084706;28;20185;-63
2022/10/26 07:53:58;;;;;;;4.32;2.42;;;;;;;21.38;nan;-24411.22;5085668;28;20184;-63
2022/10/26 07:56:24;;;;;;;5.70;2.35;;;;;;;21.72;nan;-24420.63;5085910;28;20169;-63
2022/10/26 07:58:52;;;;;;;7.38;2.92;;;;;;;21.71;nan;-24420.34;5085381;28;20170;-62
2022/10/26 08:01:17;;;;;;;7.50;2.65;;;;;;;21.70;nan;-24419.94;5085655;28;20181;-62
2022/10/26 08:03:43;;;;;;;4.35;1.90;;;;;;;21.78;nan;-24422.28;5086371;28;20188;-62
2022/10/26 08:06:09;;;;;;;4.60;2.25;;;;;;;21.59;nan;-24417.03;5086083;28;20256;-62
2022/10/26 08:08:35;;;;;;;4.60;2.20;;;;;;;21.42;nan;-24412.31;5085502;28;20260;-63
2022/10/26 08:11:01;;;;;;;3.25;2.03;;;;;;;21.69;nan;-24419.78;5085548;28;20256;-62
2022/10/26 08:13:26;;;;;;;7.40;2.47;;;;;;;21.76;nan;-24421.75;5085875;28;20181;-62
2022/10/26 08:15:59;;;;;;;6.97;2.60;;;;;;;21.74;nan;-24421.19;5084699;28;20242;-63
2022/10/26 08:18:25;;;;;;;4.57;1.95;;;;;;;21.62;nan;-24417.84;5085509;28;20667;-61
2022/10/26 08:20:50;;;;;;;5.40;2.38;;;;;;;21.92;nan;-24426.16;5085386;28;20183;-62
2022/10/26 08:23:16;;;;;;;10.73;2.05;;;;;;;22.00;nan;-24428.38;5084818;28;20636;-61
2022/10/26 08:25:41;;;;;;;4.45;2.33;;;;;;;21.99;nan;-24428.13;5083429;28;20304;-62
2022/10/26 08:28:07;;;;;;;6.07;2.40;;;;;;;22.11;nan;-24431.28;5085011;28;20211;-62
2022/10/26 08:30:32;;;;;;;3.85;1.90;;;;;;;22.00;nan;-24428.25;5082370;28;20199;-63
2022/10/26 08:32:59;;;;;;;5.03;2.60;;;;;;;22.19;nan;-24433.38;5085167;28;20208;-63
2022/10/26 08:35:25;;;;;;;3.65;1.85;;;;;;;22.28;nan;-24436.00;5084958;28;20196;-62
2022/10/26 08:37:51;;;;;;;5.32;2.10;;;;;;;22.36;nan;-24438.22;5083738;28;20181;-62
2022/10/26 08:40:20;;;;;;;3.30;2.20;;;;;;;22.44;nan;-24440.44;5084380;28;20177;-62
2022/10/26 08:42:50;;;;;;;5.50;2.40;;;;;;;22.67;nan;-24446.66;5084607;28;20182;-62
2022/10/26 08:45:39;;;;;;;3.88;2.13;;;;;;;22.95;nan;-24454.13;5083817;28;20166;-61
2022/10/26 08:48:11;;;;;;;3.45;1.65;;;;;;;22.73;nan;-24448.19;5084690;28;20599;-63
2022/10/26 08:51:00;;;;;;;6.05;3.38;;;;;;;22.96;nan;-24454.41;5083038;28;20617;-63
2022/10/26 08:54:13;;;;;;;3.67;1.80;;;;;;;22.71;nan;-24447.63;5083682;28;20273;-63
2022/10/26 08:56:45;;;;;;;2.78;1.58;;;;;;;23.07;nan;-24457.44;5070746;28;20280;-63
2022/10/26 08:59:30;;;;;;;3.75;2.00;;;;;;;23.22;nan;-24461.56;5083843;28;20640;-63
2022/10/26 09:01:56;;;;;;;4.63;1.88;;;;;;;23.17;nan;-24460.34;5085034;28;20257;-62
2022/10/26 09:04:26;;;;;;;2.53;1.60;;;;;;;23.03;nan;-24456.47;5085089;28;20193;-64
2022/10/26 09:07:07;;;;;;;3.25;1.85;;;;;;;23.05;nan;-24456.88;5082534;28;20216;-62
2022/10/26 09:09:42;;;;;;;3.40;2.00;;;;;;;23.05;nan;-24456.88;5083950;28;20246;-63
2022/10/26 09:12:26;;;;;;;2.80;1.60;;;;;;;23.45;nan;-24467.94;5084701;28;20215;-66
2022/10/26 09:15:00;;;;;;;2.70;1.85;;;;;;;23.51;nan;-24469.59;5084931;28;20192;-63
2022/10/26 09:17:55;;;;;;;2.55;1.85;;;;;;;23.53;nan;-24470.16;5084343;28;20585;-61
2022/10/26 09:20:58;;;;;;;3.30;1.90;;;;;;;23.87;nan;-24479.25;5084122;28;20652;-63
2022/10/26 09:23:27;;;;;;;4.53;1.88;;;;;;;24.04;nan;-24483.94;5000447;28;20214;-63
2022/10/26 09:25:58;;;;;;;3.15;1.60;;;;;;;23.90;nan;-24480.09;5002973;28;20236;-62
2022/10/26 09:28:27;;;;;;;3.85;2.05;;;;;;;23.86;nan;-24479.13;5046058;28;20253;-63
2022/10/26 09:30:54;;;;;;;1.70;1.50;;;;;;;23.88;nan;-24479.66;5091423;28;20211;-63
2022/10/26 09:33:23;;;;;;;1.60;1.42;;;;;;;23.96;nan;-24481.72;5079580;28;20181;-62
2022/10/26 09:35:59;;;;;;;2.00;1.42;;;;;;;23.96;nan;-24481.72;5071379;28;20170;-63
2022/10/26 09:38:46;;;;;;;2.10;1.50;;;;;;;24.30;nan;-24490.97;5089661;28;20616;-63
2022/10/26 09:41:31;;;;;;;2.13;1.40;;;;;;;24.24;nan;-24489.31;5092084;28;20177;-62
2022/10/26 09:44:24;;;;;;;2.33;1.50;;;;;;;24.28;nan;-24490.44;5091758;28;20169;-63
2022/10/26 09:47:12;;;;;;;2.45;1.40;;;;;;;24.28;nan;-24490.44;5091221;28;20193;-62
2022/10/26 09:49:49;;;;;;;2.17;1.40;;;;;;;24.18;nan;-24487.94;5091568;28;20636;-61
2022/10/26 09:52:15;;;;;;;2.90;2.10;;;;;;;24.15;nan;-24486.97;5092124;28;20185;-63
2022/10/26 09:54:41;;;;;;;31.63;8.73;;;;;;;24.15;nan;-24486.97;5091627;28;20189;-63
2022/10/26 09:57:07;;;;;;;24.00;9.07;;;;;;;24.57;nan;-24498.41;5091478;28;20173;-63
2022/10/26 09:59:37;;;;;;;12.38;5.13;;;;;;;24.33;nan;-24491.81;5091076;28;20765;-62
2022/10/26 10:02:34;;;;;;;12.45;3.88;;;;;;;24.59;nan;-24499.13;5091546;28;20567;-63
2022/10/26 10:05:00;;;;;;;13.93;6.43;;;;;;;24.25;nan;-24489.59;5091520;28;20161;-63
2022/10/26 10:07:26;;;;;;;6.32;3.13;;;;;;;24.38;nan;-24493.19;5091654;28;20679;-62
2022/10/26 10:10:13;;;;;;;7.28;3.28;;;;;;;24.38;nan;-24493.19;5091337;28;20169;-63
2022/10/26 10:12:39;;;;;;;10.20;4.70;;;;;;;24.73;nan;-24502.69;5091590;28;20169;-64
2022/10/26 10:15:15;;;;;;;3.38;1.75;;;;;;;24.58;nan;-24498.84;5091294;28;20173;-64
2022/10/26 10:17:49;;;;;;;8.77;4.18;;;;;;;24.50;nan;-24496.63;5091881;28;20255;-62
2022/10/26 10:20:21;;;;;;;8.52;2.63;;;;;;;25.15;nan;-24514.13;5090988;28;20165;-63
2022/10/26 10:23:01;;;;;;;7.53;2.75;;;;;;;25.20;nan;-24515.63;5091400;28;20176;-62
2022/10/26 10:25:37;;;;;;;6.68;3.38;;;;;;;25.23;nan;-24516.34;5090907;28;20756;-64
2022/10/26 10:28:24;;;;;;;5.47;2.63;;;;;;;25.29;nan;-24517.97;5090515;28;20258;-62
2022/10/26 10:30:58;;;;;;;10.68;3.90;;;;;;;25.00;nan;-24510.13;5091169;28;20177;-62
2022/10/26 10:33:36;;;;;;;9.27;3.33;;;;;;;25.04;nan;-24511.25;5091246;28;20169;-64
2022/10/26 10:36:04;;;;;;;5.85;2.80;;;;;;;23.41;nan;-24466.81;5090907;28;20364;-63
2022/10/26 10:38:36;;;;;;;3.38;2.25;;;;;;;17.34;nan;-24300.19;5091252;28;20203;-63
2022/10/26 10:41:03;;;;;;;10.45;4.43;;;;;;;24.83;nan;-24505.44;5090920;28;20599;-62
2022/10/26 10:43:29;;;;;;;3.97;2.17;;;;;;;24.79;nan;-24504.34;5091047;28;20181;-63
2022/10/26 10:45:57;;;;;;;3.63;1.98;;;;;;;24.89;nan;-24507.09;5091758;28;20311;-63
2022/10/26 10:48:28;;;;;;;5.32;2.65;;;;;;;24.95;nan;-24508.75;5094450;28;20234;-63
2022/10/26 10:51:11;;;;;;;8.70;3.78;;;;;;;25.29;nan;-24518.13;5094913;28;20188;-61
2022/10/26 10:53:48;;;;;;;4.90;2.50;;;;;;;25.33;nan;-24519.22;5094359;28;20643;-63
2022/10/26 10:56:13;;;;;;;4.78;2.35;;;;;;;25.42;nan;-24521.56;5094933;28;20172;-63
2022/10/26 10:58:41;;;;;;;3.03;1.77;;;;;;;25.32;nan;-24518.94;5094280;28;20177;-63
2022/10/26 11:01:13;;;;;;;3.40;1.52;;;;;;;25.48;nan;-24523.34;5094786;28;20234;-62
2022/10/26 11:03:49;;;;;;;6.63;2.20;;;;;;;25.39;nan;-24520.88;5094497;28;20176;-62
2022/10/26 11:06:17;;;;;;;3.85;2.45;;;;;;;25.29;nan;-24518.13;5094567;28;20370;-62
2022/10/26 11:09:02;;;;;;;1.83;1.45;;;;;;;25.53;nan;-24524.72;5094868;28;20176;-64
2022/10/26 11:11:34;;;;;;;3.67;1.75;;;;;;;25.40;nan;-24521.16;5094460;28;20636;-63
2022/10/26 11:14:28;;;;;;;4.53;2.30;;;;;;;25.69;nan;-24528.84;5094289;28;20161;-64
2022/10/26 11:17:17;;;;;;;4.15;2.90;;;;;;;25.80;nan;-24532.00;5094120;28;20185;-64
2022/10/26 11:19:48;;;;;;;3.83;2.15;;;;;;;25.55;nan;-24525.00;5094486;28;20234;-63
2022/10/26 11:22:19;;;;;;;8.50;3.08;;;;;;;25.76;nan;-24530.78;5094377;28;20628;-64
2022/10/26 11:24:45;;;;;;;5.93;3.30;;;;;;;25.89;nan;-24534.34;5093979;28;20312;-64
2022/10/26 11:27:24;;;;;;;4.80;2.67;;;;;;;25.68;nan;-24528.72;5094072;28;20280;-63
2022/10/26 11:30:05;;;;;;;5.60;2.05;;;;;;;25.42;nan;-24521.69;5094074;28;20522;-62
2022/10/26 11:32:48;;;;;;;7.50;2.90;;;;;;;25.37;nan;-24520.31;5093760;28;20160;-63
2022/10/26 11:35:16;;;;;;;4.93;2.92;;;;;;;25.75;nan;-24530.66;5093812;28;20201;-63
2022/10/26 11:37:51;;;;;;;6.63;3.58;;;;;;;25.69;nan;-24528.84;5093628;28;20173;-63
2022/10/26 11:40:28;;;;;;;8.52;3.80;;;;;;;25.76;nan;-24530.78;5093559;28;20173;-64
2022/10/26 11:43:12;;;;;;;15.18;3.38;;;;;;;25.82;nan;-24532.56;5091830;28;20173;-63
2022/10/26 11:45:44;;;;;;;3.95;2.60;;;;;;;25.86;nan;-24533.53;5093003;28;20165;-63
2022/10/26 11:48:39;;;;;;;6.95;2.42;;;;;;;25.69;nan;-24528.84;5093007;28;20197;-65
2022/10/26 11:51:09;;;;;;;4.95;2.92;;;;;;;25.05;nan;-24511.50;5093138;28;20174;-65
2022/10/26 11:53:42;;;;;;;5.68;2.28;;;;;;;25.95;nan;-24536.00;5093364;28;20214;-61
2022/10/26 11:56:38;;;;;;;16.38;2.60;;;;;;;25.96;nan;-24536.28;5092949;28;20184;-62
2022/10/26 11:59:05;;;;;;;2.72;2.10;;;;;;;26.02;nan;-24537.78;5083421;28;20209;-64